sensor_id;sensor_type;location;lat;lon;timestamp;pressure;altitude;pressure_sealevel;temperature;humidity
53246;BME280;39569;51.090;-1.786;2023-02-23T00:00:50;100878.09;;;12.00;56.81
53246;BME280;39569;51.090;-1.786;2023-02-23T00:03:19;100874.84;;;12.27;56.80
53246;BME280;39569;51.090;-1.786;2023-02-23T00:05:45;100878.47;;;11.97;57.13
53246;BME280;39569;51.090;-1.786;2023-02-23T00:08:12;100876.47;;;12.14;57.24
53246;BME280;39569;51.090;-1.786;2023-02-23T00:10:39;100887.38;;;12.12;56.82
53246;BME280;39569;51.090;-1.786;2023-02-23T00:13:06;100859.38;;;12.15;56.33
53246;BME280;39569;51.090;-1.786;2023-02-23T00:15:35;100877.75;;;12.03;57.09
53246;BME280;39569;51.090;-1.786;2023-02-23T00:18:02;100876.41;;;12.22;56.58
53246;BME280;39569;51.090;-1.786;2023-02-23T00:20:30;100876.50;;;12.28;56.44
53246;BME280;39569;51.090;-1.786;2023-02-23T00:22:57;100868.56;;;12.35;56.19
53246;BME280;39569;51.090;-1.786;2023-02-23T00:25:24;100871.38;;;12.70;55.07
53246;BME280;39569;51.090;-1.786;2023-02-23T00:27:51;100874.31;;;12.61;54.92
53246;BME280;39569;51.090;-1.786;2023-02-23T00:30:18;100873.31;;;12.76;54.48
53246;BME280;39569;51.090;-1.786;2023-02-23T00:32:45;100874.56;;;12.37;55.24
53246;BME280;39569;51.090;-1.786;2023-02-23T00:35:12;100871.09;;;12.36;55.38
53246;BME280;39569;51.090;-1.786;2023-02-23T00:37:46;100877.19;;;12.45;55.12
53246;BME280;39569;51.090;-1.786;2023-02-23T00:40:13;100873.44;;;12.31;55.23
53246;BME280;39569;51.090;-1.786;2023-02-23T00:42:42;100878.22;;;12.07;55.52
53246;BME280;39569;51.090;-1.786;2023-02-23T00:45:10;100877.63;;;11.97;56.00
53246;BME280;39569;51.090;-1.786;2023-02-23T00:47:38;100882.41;;;11.87;56.08
53246;BME280;39569;51.090;-1.786;2023-02-23T00:50:07;100888.97;;;11.76;56.09
53246;BME280;39569;51.090;-1.786;2023-02-23T00:52:38;100882.94;;;11.51;57.24
53246;BME280;39569;51.090;-1.786;2023-02-23T00:55:08;100889.75;;;11.54;57.36
53246;BME280;39569;51.090;-1.786;2023-02-23T00:57:35;100887.16;;;11.46;57.32
53246;BME280;39569;51.090;-1.786;2023-02-23T01:00:03;100886.50;;;11.44;57.22
53246;BME280;39569;51.090;-1.786;2023-02-23T01:02:38;100885.06;;;11.56;57.33
53246;BME280;39569;51.090;-1.786;2023-02-23T01:05:07;100888.41;;;11.66;57.36
53246;BME280;39569;51.090;-1.786;2023-02-23T01:07:35;100881.81;;;11.46;57.59
53246;BME280;39569;51.090;-1.786;2023-02-23T01:10:03;100888.50;;;11.72;57.27
53246;BME280;39569;51.090;-1.786;2023-02-23T01:12:45;100890.00;;;11.98;56.55
53246;BME280;39569;51.090;-1.786;2023-02-23T01:15:12;100892.03;;;11.96;56.80
53246;BME280;39569;51.090;-1.786;2023-02-23T01:17:39;100895.03;;;11.93;56.64
53246;BME280;39569;51.090;-1.786;2023-02-23T01:20:08;100888.41;;;12.26;55.94
53246;BME280;39569;51.090;-1.786;2023-02-23T01:22:40;100893.09;;;12.24;55.58
53246;BME280;39569;51.090;-1.786;2023-02-23T01:25:08;100898.47;;;12.24;55.89
53246;BME280;39569;51.090;-1.786;2023-02-23T01:27:37;100897.09;;;12.05;56.58
53246;BME280;39569;51.090;-1.786;2023-02-23T01:30:07;100900.06;;;11.96;56.85
53246;BME280;39569;51.090;-1.786;2023-02-23T01:32:35;100899.84;;;11.74;57.74
53246;BME280;39569;51.090;-1.786;2023-02-23T01:35:03;100900.72;;;11.98;57.05
53246;BME280;39569;51.090;-1.786;2023-02-23T01:37:33;100905.03;;;12.21;56.69
53246;BME280;39569;51.090;-1.786;2023-02-23T01:40:01;100897.44;;;12.10;56.36
53246;BME280;39569;51.090;-1.786;2023-02-23T01:42:36;100896.06;;;11.61;57.98
53246;BME280;39569;51.090;-1.786;2023-02-23T01:45:32;100899.16;;;12.03;57.15
53246;BME280;39569;51.090;-1.786;2023-02-23T01:48:04;100900.78;;;12.27;56.23
53246;BME280;39569;51.090;-1.786;2023-02-23T01:50:42;100899.91;;;12.12;56.42
53246;BME280;39569;51.090;-1.786;2023-02-23T01:53:10;100908.13;;;12.10;56.59
53246;BME280;39569;51.090;-1.786;2023-02-23T01:55:37;100907.25;;;12.18;56.47
53246;BME280;39569;51.090;-1.786;2023-02-23T01:58:08;100911.97;;;11.85;57.47
53246;BME280;39569;51.090;-1.786;2023-02-23T02:00:42;100910.84;;;12.25;56.86
53246;BME280;39569;51.090;-1.786;2023-02-23T02:03:14;100906.69;;;12.22;57.23
53246;BME280;39569;51.090;-1.786;2023-02-23T02:05:42;100914.47;;;12.32;56.74
53246;BME280;39569;51.090;-1.786;2023-02-23T02:08:10;100909.53;;;12.58;55.68
53246;BME280;39569;51.090;-1.786;2023-02-23T02:10:37;100910.38;;;12.21;56.71
53246;BME280;39569;51.090;-1.786;2023-02-23T02:13:14;100912.28;;;12.13;57.07
53246;BME280;39569;51.090;-1.786;2023-02-23T02:18:45;100920.81;;;12.16;56.99
53246;BME280;39569;51.090;-1.786;2023-02-23T02:24:48;100916.88;;;12.27;57.06
53246;BME280;39569;51.090;-1.786;2023-02-23T02:27:28;100925.28;;;12.01;57.37
53246;BME280;39569;51.090;-1.786;2023-02-23T02:33:30;100923.78;;;12.73;56.29
53246;BME280;39569;51.090;-1.786;2023-02-23T02:39:23;100931.00;;;12.35;57.58
53246;BME280;39569;51.090;-1.786;2023-02-23T02:42:06;100931.81;;;12.21;57.68
53246;BME280;39569;51.090;-1.786;2023-02-23T02:44:39;100930.97;;;12.21;57.95
53246;BME280;39569;51.090;-1.786;2023-02-23T02:47:11;100921.22;;;12.42;57.57
53246;BME280;39569;51.090;-1.786;2023-02-23T02:49:47;100923.31;;;12.55;57.25
53246;BME280;39569;51.090;-1.786;2023-02-23T02:52:18;100920.53;;;12.26;58.21
53246;BME280;39569;51.090;-1.786;2023-02-23T02:54:50;100923.66;;;12.52;57.25
53246;BME280;39569;51.090;-1.786;2023-02-23T02:57:19;100925.78;;;12.42;57.65
53246;BME280;39569;51.090;-1.786;2023-02-23T02:59:48;100925.81;;;12.71;56.51
53246;BME280;39569;51.090;-1.786;2023-02-23T03:02:35;100925.25;;;12.24;58.02
53246;BME280;39569;51.090;-1.786;2023-02-23T03:05:23;100923.00;;;12.50;57.78
53246;BME280;39569;51.090;-1.786;2023-02-23T03:08:14;100925.03;;;12.48;57.61
53246;BME280;39569;51.090;-1.786;2023-02-23T03:11:04;100920.75;;;12.39;57.46
53246;BME280;39569;51.090;-1.786;2023-02-23T03:14:01;100920.06;;;12.59;57.26
53246;BME280;39569;51.090;-1.786;2023-02-23T03:16:55;100921.78;;;12.38;57.46
53246;BME280;39569;51.090;-1.786;2023-02-23T03:19:49;100916.06;;;12.55;57.30
53246;BME280;39569;51.090;-1.786;2023-02-23T03:22:38;100920.44;;;12.71;56.79
53246;BME280;39569;51.090;-1.786;2023-02-23T03:25:30;100928.03;;;12.30;57.82
53246;BME280;39569;51.090;-1.786;2023-02-23T03:28:18;100915.25;;;12.55;57.84
53246;BME280;39569;51.090;-1.786;2023-02-23T03:31:12;100918.41;;;12.58;56.93
53246;BME280;39569;51.090;-1.786;2023-02-23T03:34:04;100919.09;;;12.38;58.04
53246;BME280;39569;51.090;-1.786;2023-02-23T03:37:00;100927.16;;;12.52;57.89
53246;BME280;39569;51.090;-1.786;2023-02-23T03:39:51;100926.69;;;12.49;57.63
53246;BME280;39569;51.090;-1.786;2023-02-23T03:42:39;100928.50;;;12.34;57.71
53246;BME280;39569;51.090;-1.786;2023-02-23T03:45:27;100929.72;;;12.46;57.69
53246;BME280;39569;51.090;-1.786;2023-02-23T03:48:14;100924.38;;;12.09;58.34
53246;BME280;39569;51.090;-1.786;2023-02-23T03:51:05;100927.22;;;12.44;57.90
53246;BME280;39569;51.090;-1.786;2023-02-23T03:53:52;100933.19;;;12.54;57.31
53246;BME280;39569;51.090;-1.786;2023-02-23T03:56:43;100934.91;;;12.33;57.63
53246;BME280;39569;51.090;-1.786;2023-02-23T03:59:33;100940.19;;;12.18;58.07
53246;BME280;39569;51.090;-1.786;2023-02-23T04:02:21;100941.81;;;12.05;58.97
53246;BME280;39569;51.090;-1.786;2023-02-23T04:05:17;100953.09;;;12.15;58.77
53246;BME280;39569;51.090;-1.786;2023-02-23T04:08:03;100951.19;;;12.23;58.24
53246;BME280;39569;51.090;-1.786;2023-02-23T04:10:54;100954.88;;;12.00;59.20
53246;BME280;39569;51.090;-1.786;2023-02-23T04:13:44;100963.22;;;12.27;58.52
53246;BME280;39569;51.090;-1.786;2023-02-23T04:16:13;100964.84;;;12.14;58.16
53246;BME280;39569;51.090;-1.786;2023-02-23T04:18:40;100967.75;;;12.04;58.67
53246;BME280;39569;51.090;-1.786;2023-02-23T04:21:08;100961.31;;;12.13;58.48
53246;BME280;39569;51.090;-1.786;2023-02-23T04:23:34;100970.41;;;12.27;58.37
53246;BME280;39569;51.090;-1.786;2023-02-23T04:26:05;100974.94;;;11.81;59.25
53246;BME280;39569;51.090;-1.786;2023-02-23T04:28:31;100966.00;;;12.11;58.96
53246;BME280;39569;51.090;-1.786;2023-02-23T04:30:58;100978.75;;;11.87;58.95
53246;BME280;39569;51.090;-1.786;2023-02-23T04:33:26;100981.91;;;11.90;59.33
53246;BME280;39569;51.090;-1.786;2023-02-23T04:35:54;100983.16;;;12.25;58.56
53246;BME280;39569;51.090;-1.786;2023-02-23T04:38:22;100978.66;;;11.95;59.26
53246;BME280;39569;51.090;-1.786;2023-02-23T04:40:49;100990.63;;;11.84;59.03
53246;BME280;39569;51.090;-1.786;2023-02-23T04:43:16;100990.91;;;12.20;58.48
53246;BME280;39569;51.090;-1.786;2023-02-23T04:45:43;100991.31;;;12.09;58.69
53246;BME280;39569;51.090;-1.786;2023-02-23T04:48:10;100997.13;;;12.35;58.38
53246;BME280;39569;51.090;-1.786;2023-02-23T04:50:37;101001.00;;;12.32;58.70
53246;BME280;39569;51.090;-1.786;2023-02-23T04:53:05;101001.28;;;12.15;58.76
53246;BME280;39569;51.090;-1.786;2023-02-23T04:55:32;101002.53;;;12.04;58.88
53246;BME280;39569;51.090;-1.786;2023-02-23T04:58:00;101004.59;;;12.25;58.87
53246;BME280;39569;51.090;-1.786;2023-02-23T05:00:28;101007.25;;;12.25;58.68
53246;BME280;39569;51.090;-1.786;2023-02-23T05:02:55;101006.38;;;12.02;59.43
53246;BME280;39569;51.090;-1.786;2023-02-23T05:05:22;101009.75;;;12.26;58.81
53246;BME280;39569;51.090;-1.786;2023-02-23T05:07:49;101016.78;;;12.05;59.14
53246;BME280;39569;51.090;-1.786;2023-02-23T05:10:17;101018.81;;;12.25;58.96
53246;BME280;39569;51.090;-1.786;2023-02-23T05:12:44;101017.19;;;12.39;58.49
53246;BME280;39569;51.090;-1.786;2023-02-23T05:15:11;101023.69;;;12.22;59.43
53246;BME280;39569;51.090;-1.786;2023-02-23T05:17:38;101026.00;;;12.47;58.37
53246;BME280;39569;51.090;-1.786;2023-02-23T05:20:07;101033.25;;;12.39;58.78
53246;BME280;39569;51.090;-1.786;2023-02-23T05:22:34;101032.97;;;12.34;59.24
53246;BME280;39569;51.090;-1.786;2023-02-23T05:25:01;101029.09;;;12.14;59.65
53246;BME280;39569;51.090;-1.786;2023-02-23T05:27:30;101034.69;;;12.27;59.40
53246;BME280;39569;51.090;-1.786;2023-02-23T05:29:58;101033.66;;;12.28;58.83
53246;BME280;39569;51.090;-1.786;2023-02-23T05:32:25;101034.75;;;12.19;59.66
53246;BME280;39569;51.090;-1.786;2023-02-23T05:34:52;101034.88;;;12.25;59.79
53246;BME280;39569;51.090;-1.786;2023-02-23T05:37:18;101038.41;;;11.95;59.80
53246;BME280;39569;51.090;-1.786;2023-02-23T05:39:46;101035.31;;;12.06;59.91
53246;BME280;39569;51.090;-1.786;2023-02-23T05:42:12;101045.69;;;12.32;59.01
53246;BME280;39569;51.090;-1.786;2023-02-23T05:44:41;101053.91;;;12.00;59.77
53246;BME280;39569;51.090;-1.786;2023-02-23T05:47:07;101052.16;;;12.15;59.92
53246;BME280;39569;51.090;-1.786;2023-02-23T05:49:35;101054.56;;;12.32;59.20
53246;BME280;39569;51.090;-1.786;2023-02-23T05:52:01;101051.88;;;12.10;59.39
53246;BME280;39569;51.090;-1.786;2023-02-23T05:54:28;101057.72;;;12.05;59.66
53246;BME280;39569;51.090;-1.786;2023-02-23T05:56:55;101047.22;;;12.04;60.02
53246;BME280;39569;51.090;-1.786;2023-02-23T05:59:22;101044.31;;;12.13;60.17
53246;BME280;39569;51.090;-1.786;2023-02-23T06:01:50;101050.53;;;12.06;59.98
53246;BME280;39569;51.090;-1.786;2023-02-23T06:04:17;101042.34;;;12.07;59.90
53246;BME280;39569;51.090;-1.786;2023-02-23T06:06:45;101049.63;;;12.21;59.28
53246;BME280;39569;51.090;-1.786;2023-02-23T06:09:12;101042.25;;;12.23;59.36
53246;BME280;39569;51.090;-1.786;2023-02-23T06:11:38;101048.59;;;12.22;59.90
53246;BME280;39569;51.090;-1.786;2023-02-23T06:14:05;101045.41;;;11.96;60.34
53246;BME280;39569;51.090;-1.786;2023-02-23T06:16:32;101051.97;;;11.94;60.17
53246;BME280;39569;51.090;-1.786;2023-02-23T06:19:00;101046.41;;;12.03;60.08
53246;BME280;39569;51.090;-1.786;2023-02-23T06:21:27;101046.06;;;11.98;60.29
53246;BME280;39569;51.090;-1.786;2023-02-23T06:23:53;101039.75;;;11.91;60.67
53246;BME280;39569;51.090;-1.786;2023-02-23T06:26:24;101041.81;;;12.12;59.82
53246;BME280;39569;51.090;-1.786;2023-02-23T06:28:50;101044.06;;;12.00;60.07
53246;BME280;39569;51.090;-1.786;2023-02-23T06:31:17;101057.25;;;12.02;59.82
53246;BME280;39569;51.090;-1.786;2023-02-23T06:33:44;101041.34;;;12.08;60.09
53246;BME280;39569;51.090;-1.786;2023-02-23T06:36:13;101048.59;;;12.22;59.56
53246;BME280;39569;51.090;-1.786;2023-02-23T06:38:39;101055.69;;;11.84;60.55
53246;BME280;39569;51.090;-1.786;2023-02-23T06:41:07;101062.22;;;12.13;59.89
53246;BME280;39569;51.090;-1.786;2023-02-23T06:43:34;101061.66;;;11.95;60.45
53246;BME280;39569;51.090;-1.786;2023-02-23T06:46:02;101071.28;;;12.12;60.17
53246;BME280;39569;51.090;-1.786;2023-02-23T06:48:29;101071.75;;;11.84;60.41
53246;BME280;39569;51.090;-1.786;2023-02-23T06:50:57;101074.19;;;11.94;60.59
53246;BME280;39569;51.090;-1.786;2023-02-23T06:53:25;101078.47;;;11.80;61.13
53246;BME280;39569;51.090;-1.786;2023-02-23T06:55:52;101073.47;;;12.08;59.95
53246;BME280;39569;51.090;-1.786;2023-02-23T06:58:19;101080.47;;;11.78;60.71
53246;BME280;39569;51.090;-1.786;2023-02-23T07:00:46;101084.38;;;11.68;61.09
53246;BME280;39569;51.090;-1.786;2023-02-23T07:03:12;101072.38;;;12.25;59.90
53246;BME280;39569;51.090;-1.786;2023-02-23T07:05:39;101079.50;;;12.02;60.32
53246;BME280;39569;51.090;-1.786;2023-02-23T07:08:06;101087.63;;;11.86;60.58
53246;BME280;39569;51.090;-1.786;2023-02-23T07:10:34;101092.97;;;11.86;61.30
53246;BME280;39569;51.090;-1.786;2023-02-23T07:13:01;101093.97;;;11.85;60.71
53246;BME280;39569;51.090;-1.786;2023-02-23T07:15:28;101106.91;;;12.12;60.11
53246;BME280;39569;51.090;-1.786;2023-02-23T07:17:55;101107.41;;;12.16;60.04
53246;BME280;39569;51.090;-1.786;2023-02-23T07:20:22;101108.56;;;12.13;60.22
53246;BME280;39569;51.090;-1.786;2023-02-23T07:22:48;101110.91;;;12.16;60.30
53246;BME280;39569;51.090;-1.786;2023-02-23T07:25:16;101112.66;;;12.32;60.30
53246;BME280;39569;51.090;-1.786;2023-02-23T07:27:45;101115.38;;;12.24;59.82
53246;BME280;39569;51.090;-1.786;2023-02-23T07:30:12;101119.84;;;12.31;59.81
53246;BME280;39569;51.090;-1.786;2023-02-23T07:32:39;101121.47;;;12.40;59.90
53246;BME280;39569;51.090;-1.786;2023-02-23T07:35:07;101118.28;;;12.45;59.49
53246;BME280;39569;51.090;-1.786;2023-02-23T07:37:34;101121.38;;;12.56;59.29
53246;BME280;39569;51.090;-1.786;2023-02-23T07:40:00;101114.63;;;12.38;60.09
53246;BME280;39569;51.090;-1.786;2023-02-23T07:42:27;101117.66;;;12.35;59.87
53246;BME280;39569;51.090;-1.786;2023-02-23T07:44:56;101120.19;;;12.36;59.75
53246;BME280;39569;51.090;-1.786;2023-02-23T07:47:22;101118.88;;;12.24;60.18
53246;BME280;39569;51.090;-1.786;2023-02-23T07:49:56;101122.44;;;12.17;60.45
53246;BME280;39569;51.090;-1.786;2023-02-23T07:52:24;101121.97;;;12.44;59.25
53246;BME280;39569;51.090;-1.786;2023-02-23T07:54:51;101128.38;;;12.04;60.68
53246;BME280;39569;51.090;-1.786;2023-02-23T07:57:18;101123.59;;;12.53;59.74
53246;BME280;39569;51.090;-1.786;2023-02-23T07:59:45;101129.59;;;13.00;57.56
53246;BME280;39569;51.090;-1.786;2023-02-23T08:02:13;101132.59;;;12.60;58.89
53246;BME280;39569;51.090;-1.786;2023-02-23T08:04:40;101128.31;;;12.73;58.75
53246;BME280;39569;51.090;-1.786;2023-02-23T08:07:08;101144.88;;;12.77;59.11
53246;BME280;39569;51.090;-1.786;2023-02-23T08:09:35;101140.88;;;12.96;58.50
53246;BME280;39569;51.090;-1.786;2023-02-23T08:12:02;101140.78;;;12.81;58.89
53246;BME280;39569;51.090;-1.786;2023-02-23T08:14:29;101148.63;;;12.68;58.93
53246;BME280;39569;51.090;-1.786;2023-02-23T08:16:55;101149.44;;;12.68;58.54
53246;BME280;39569;51.090;-1.786;2023-02-23T08:19:24;101157.34;;;13.15;58.30
53246;BME280;39569;51.090;-1.786;2023-02-23T08:21:51;101147.94;;;12.43;59.44
53246;BME280;39569;51.090;-1.786;2023-02-23T08:24:18;101156.94;;;12.73;58.61
53246;BME280;39569;51.090;-1.786;2023-02-23T08:26:45;101167.19;;;12.69;58.56
53246;BME280;39569;51.090;-1.786;2023-02-23T08:29:11;101162.97;;;12.75;58.34
53246;BME280;39569;51.090;-1.786;2023-02-23T08:31:38;101165.13;;;13.25;57.90
53246;BME280;39569;51.090;-1.786;2023-02-23T08:34:05;101176.72;;;12.95;57.76
53246;BME280;39569;51.090;-1.786;2023-02-23T08:36:33;101167.31;;;12.99;57.45
53246;BME280;39569;51.090;-1.786;2023-02-23T08:39:00;101171.34;;;13.25;56.90
53246;BME280;39569;51.090;-1.786;2023-02-23T08:41:27;101172.50;;;13.00;57.73
53246;BME280;39569;51.090;-1.786;2023-02-23T08:43:53;101175.03;;;13.24;57.18
53246;BME280;39569;51.090;-1.786;2023-02-23T08:46:20;101178.22;;;12.74;58.08
53246;BME280;39569;51.090;-1.786;2023-02-23T08:48:47;101174.53;;;12.98;57.80
53246;BME280;39569;51.090;-1.786;2023-02-23T08:51:14;101174.03;;;12.49;58.66
53246;BME280;39569;51.090;-1.786;2023-02-23T08:53:43;101166.72;;;12.66;59.17
53246;BME280;39569;51.090;-1.786;2023-02-23T08:56:10;101178.22;;;12.74;58.28
53246;BME280;39569;51.090;-1.786;2023-02-23T08:58:37;101178.25;;;13.20;57.71
53246;BME280;39569;51.090;-1.786;2023-02-23T09:01:04;101175.06;;;12.71;57.72
53246;BME280;39569;51.090;-1.786;2023-02-23T09:03:32;101173.91;;;12.65;57.87
53246;BME280;39569;51.090;-1.786;2023-02-23T09:06:06;101178.50;;;12.79;57.92
53246;BME280;39569;51.090;-1.786;2023-02-23T09:08:34;101178.56;;;12.71;58.27
53246;BME280;39569;51.090;-1.786;2023-02-23T09:11:02;101176.00;;;13.09;56.84
53246;BME280;39569;51.090;-1.786;2023-02-23T09:13:29;101184.66;;;13.33;56.58
53246;BME280;39569;51.090;-1.786;2023-02-23T09:15:56;101178.25;;;13.20;56.57
53246;BME280;39569;51.090;-1.786;2023-02-23T09:18:23;101182.63;;;13.35;55.78
53246;BME280;39569;51.090;-1.786;2023-02-23T09:20:52;101186.59;;;13.25;56.24
53246;BME280;39569;51.090;-1.786;2023-02-23T09:23:19;101180.09;;;13.19;56.71
53246;BME280;39569;51.090;-1.786;2023-02-23T09:25:46;101182.84;;;13.11;56.74
53246;BME280;39569;51.090;-1.786;2023-02-23T09:28:16;101182.16;;;13.32;56.15
53246;BME280;39569;51.090;-1.786;2023-02-23T09:30:44;101191.78;;;13.26;55.85
53246;BME280;39569;51.090;-1.786;2023-02-23T09:33:12;101186.00;;;13.52;55.26
53246;BME280;39569;51.090;-1.786;2023-02-23T09:35:40;101194.72;;;12.86;56.15
53246;BME280;39569;51.090;-1.786;2023-02-23T09:38:07;101201.66;;;13.26;55.10
53246;BME280;39569;51.090;-1.786;2023-02-23T09:40:43;101201.75;;;13.18;56.08
53246;BME280;39569;51.090;-1.786;2023-02-23T09:43:14;101206.69;;;13.06;56.00
53246;BME280;39569;51.090;-1.786;2023-02-23T09:45:47;101205.13;;;13.71;54.98
53246;BME280;39569;51.090;-1.786;2023-02-23T09:48:16;101203.56;;;13.40;54.94
53246;BME280;39569;51.090;-1.786;2023-02-23T09:50:48;101199.94;;;13.33;55.42
53246;BME280;39569;51.090;-1.786;2023-02-23T09:53:34;101206.16;;;13.48;54.24
53246;BME280;39569;51.090;-1.786;2023-02-23T09:56:07;101209.03;;;13.24;54.75
53246;BME280;39569;51.090;-1.786;2023-02-23T09:58:39;101220.56;;;13.55;54.63
53246;BME280;39569;51.090;-1.786;2023-02-23T10:04:23;101228.84;;;13.45;53.91
53246;BME280;39569;51.090;-1.786;2023-02-23T10:06:58;101216.06;;;13.85;53.01
53246;BME280;39569;51.090;-1.786;2023-02-23T10:09:37;101230.41;;;13.77;53.53
53246;BME280;39569;51.090;-1.786;2023-02-23T10:12:10;101228.41;;;14.08;53.41
53246;BME280;39569;51.090;-1.786;2023-02-23T10:14:59;101227.34;;;13.80;53.65
53246;BME280;39569;51.090;-1.786;2023-02-23T10:17:38;101224.19;;;13.39;54.21
53246;BME280;39569;51.090;-1.786;2023-02-23T10:20:16;101219.84;;;13.16;54.09
53246;BME280;39569;51.090;-1.786;2023-02-23T10:22:45;101228.47;;;13.26;54.42
53246;BME280;39569;51.090;-1.786;2023-02-23T10:25:16;101232.69;;;13.65;53.89
53246;BME280;39569;51.090;-1.786;2023-02-23T10:27:47;101233.88;;;13.63;52.83
53246;BME280;39569;51.090;-1.786;2023-02-23T10:30:21;101240.50;;;13.75;53.21
53246;BME280;39569;51.090;-1.786;2023-02-23T10:32:53;101236.44;;;13.79;52.86
53246;BME280;39569;51.090;-1.786;2023-02-23T10:35:22;101242.47;;;13.96;52.89
53246;BME280;39569;51.090;-1.786;2023-02-23T10:37:50;101247.50;;;13.39;53.47
53246;BME280;39569;51.090;-1.786;2023-02-23T10:40:19;101240.44;;;13.98;52.42
53246;BME280;39569;51.090;-1.786;2023-02-23T10:42:48;101239.69;;;13.52;53.12
53246;BME280;39569;51.090;-1.786;2023-02-23T10:45:17;101246.88;;;13.51;53.20
53246;BME280;39569;51.090;-1.786;2023-02-23T10:47:51;101266.47;;;13.60;52.46
53246;BME280;39569;51.090;-1.786;2023-02-23T10:50:21;101256.97;;;13.87;52.10
53246;BME280;39569;51.090;-1.786;2023-02-23T10:52:54;101253.59;;;14.65;50.87
53246;BME280;39569;51.090;-1.786;2023-02-23T10:55:25;101252.44;;;14.89;50.07
53246;BME280;39569;51.090;-1.786;2023-02-23T10:58:09;101260.44;;;14.83;50.02
53246;BME280;39569;51.090;-1.786;2023-02-23T11:00:49;101257.06;;;14.95;49.53
53246;BME280;39569;51.090;-1.786;2023-02-23T11:03:23;101259.97;;;14.79;49.53
53246;BME280;39569;51.090;-1.786;2023-02-23T11:05:51;101257.13;;;14.66;50.45
53246;BME280;39569;51.090;-1.786;2023-02-23T11:08:24;101270.03;;;14.41;51.19
53246;BME280;39569;51.090;-1.786;2023-02-23T11:11:03;101269.53;;;14.09;50.83
53246;BME280;39569;51.090;-1.786;2023-02-23T11:13:38;101266.53;;;14.04;51.70
53246;BME280;39569;51.090;-1.786;2023-02-23T11:16:09;101266.25;;;13.99;51.21
53246;BME280;39569;51.090;-1.786;2023-02-23T11:18:40;101269.47;;;13.79;51.21
53246;BME280;39569;51.090;-1.786;2023-02-23T11:21:10;101266.78;;;14.31;50.48
53246;BME280;39569;51.090;-1.786;2023-02-23T11:23:39;101274.19;;;14.29;50.69
53246;BME280;39569;51.090;-1.786;2023-02-23T11:26:20;101274.09;;;14.52;50.37
53246;BME280;39569;51.090;-1.786;2023-02-23T11:28:53;101280.84;;;14.33;51.12
53246;BME280;39569;51.090;-1.786;2023-02-23T11:31:26;101278.31;;;14.17;51.09
53246;BME280;39569;51.090;-1.786;2023-02-23T11:33:56;101287.16;;;14.69;50.27
53246;BME280;39569;51.090;-1.786;2023-02-23T11:36:27;101278.28;;;14.40;50.40
53246;BME280;39569;51.090;-1.786;2023-02-23T11:39:17;101277.81;;;14.51;50.56
53246;BME280;39569;51.090;-1.786;2023-02-23T11:42:03;101285.91;;;15.01;50.23
53246;BME280;39569;51.090;-1.786;2023-02-23T11:44:30;101284.66;;;14.39;49.90
53246;BME280;39569;51.090;-1.786;2023-02-23T11:46:57;101299.44;;;14.20;50.45
53246;BME280;39569;51.090;-1.786;2023-02-23T11:49:29;101281.44;;;13.92;50.88
53246;BME280;39569;51.090;-1.786;2023-02-23T11:51:59;101279.41;;;14.31;50.22
53246;BME280;39569;51.090;-1.786;2023-02-23T11:54:29;101275.53;;;15.19;49.70
53246;BME280;39569;51.090;-1.786;2023-02-23T11:56:57;101275.66;;;15.11;49.88
53246;BME280;39569;51.090;-1.786;2023-02-23T11:59:29;101285.94;;;15.64;48.91
53246;BME280;39569;51.090;-1.786;2023-02-23T12:02:03;101280.47;;;15.37;48.50
53246;BME280;39569;51.090;-1.786;2023-02-23T12:04:34;101288.84;;;15.27;48.55
53246;BME280;39569;51.090;-1.786;2023-02-23T12:07:25;101278.59;;;15.16;48.65
53246;BME280;39569;51.090;-1.786;2023-02-23T12:09:58;101272.88;;;15.61;48.14
53246;BME280;39569;51.090;-1.786;2023-02-23T12:12:27;101278.81;;;15.36;48.04
53246;BME280;39569;51.090;-1.786;2023-02-23T12:14:59;101273.00;;;15.53;48.45
53246;BME280;39569;51.090;-1.786;2023-02-23T12:17:31;101271.84;;;15.62;48.69
53246;BME280;39569;51.090;-1.786;2023-02-23T12:20:05;101277.66;;;15.87;47.75
53246;BME280;39569;51.090;-1.786;2023-02-23T12:22:38;101273.63;;;16.04;48.17
53246;BME280;39569;51.090;-1.786;2023-02-23T12:25:14;101271.56;;;15.51;48.49
53246;BME280;39569;51.090;-1.786;2023-02-23T12:27:48;101275.19;;;15.43;47.96
53246;BME280;39569;51.090;-1.786;2023-02-23T12:30:20;101272.25;;;15.03;48.25
53246;BME280;39569;51.090;-1.786;2023-02-23T12:32:53;101269.41;;;15.46;47.65
53246;BME280;39569;51.090;-1.786;2023-02-23T12:35:28;101277.00;;;15.22;48.52
53246;BME280;39569;51.090;-1.786;2023-02-23T12:38:00;101277.09;;;14.93;49.73
53246;BME280;39569;51.090;-1.786;2023-02-23T12:40:32;101283.25;;;14.57;49.98
53246;BME280;39569;51.090;-1.786;2023-02-23T12:43:04;101281.22;;;14.59;49.65
53246;BME280;39569;51.090;-1.786;2023-02-23T12:45:37;101286.47;;;14.09;50.12
53246;BME280;39569;51.090;-1.786;2023-02-23T12:48:13;101282.13;;;14.08;50.61
53246;BME280;39569;51.090;-1.786;2023-02-23T12:50:50;101287.25;;;13.80;50.35
53246;BME280;39569;51.090;-1.786;2023-02-23T12:53:21;101284.16;;;14.06;49.81
53246;BME280;39569;51.090;-1.786;2023-02-23T12:55:57;101282.63;;;14.41;48.85
53246;BME280;39569;51.090;-1.786;2023-02-23T12:58:32;101285.28;;;14.70;48.52
53246;BME280;39569;51.090;-1.786;2023-02-23T13:01:04;101281.97;;;15.04;48.05
53246;BME280;39569;51.090;-1.786;2023-02-23T13:04:13;101281.97;;;15.04;48.68
53246;BME280;39569;51.090;-1.786;2023-02-23T13:06:52;101283.72;;;14.61;49.19
53246;BME280;39569;51.090;-1.786;2023-02-23T13:09:42;101286.47;;;14.82;49.17
53246;BME280;39569;51.090;-1.786;2023-02-23T13:12:19;101285.41;;;14.47;49.81
53246;BME280;39569;51.090;-1.786;2023-02-23T13:14:53;101289.56;;;13.83;50.99
53246;BME280;39569;51.090;-1.786;2023-02-23T13:17:32;101288.22;;;14.02;50.17
53246;BME280;39569;51.090;-1.786;2023-02-23T13:20:05;101284.06;;;14.14;50.44